DLH762 EDDM-VIDP
Flight info
| Callsign | DLH762 |
|---|---|
| Flight time | N/A |
| Altitude | 33000 |
| Route | KIRDI3S/26L KIRDI DCT BUWOQ DCT OBFEZ/N0482F370 DCT STEIN DCT SIRDU DCT GITAS DCT BOKSI DCT TEGRI DCT UDROS UN743 GAKSU UT310 SIN UN644 KARDE/N0498F390 UL851 TBN UR317 REBLO P130 MAMED B449 DOLOS B475 NINOP A909 LEMOD N644 DI A466 ELKUX ELKUX7G |
| Aircraft | A388/J-SADE2E3FGHIJ3J4J5M1RWXY/LB1D1 |
Departure
| Time | N/A |
|---|---|
| Airport | Munich Airport (EDDM) |
Arrival
| Time | 2026-05-05 23:02 |
|---|---|
| Airport | Indira Gandhi International Airport (VIDP) |
| Time | Latitude | Longitude | Altitude | Speed | Heading |
|---|---|---|---|---|---|
| 2026-05-05 18:09 | 42.48932 | 31.84275 | 37045 ft | 487 kts | 102° |
| 2026-05-05 18:10 | 42.48020 | 31.88696 | 37028 ft | 487 kts | 102° |
| 2026-05-05 18:10 | 42.46187 | 31.97539 | 37028 ft | 488 kts | 103° |
| 2026-05-05 18:11 | 42.44347 | 32.06372 | 37037 ft | 487 kts | 103° |
| 2026-05-05 18:11 | 42.42507 | 32.15174 | 37032 ft | 486 kts | 103° |
| 2026-05-05 18:12 | 42.40661 | 32.23962 | 37026 ft | 485 kts | 103° |
| 2026-05-05 18:12 | 42.39122 | 32.31264 | 37024 ft | 485 kts | 103° |
| 2026-05-05 18:13 | 42.37270 | 32.40019 | 37020 ft | 484 kts | 103° |
| 2026-05-05 18:13 | 42.35410 | 32.48770 | 37012 ft | 484 kts | 103° |
| 2026-05-05 18:14 | 42.33565 | 32.57516 | 37011 ft | 483 kts | 101° |
| 2026-05-05 18:14 | 42.32440 | 32.66450 | 37240 ft | 484 kts | 96° |
| 2026-05-05 18:14 | 42.31946 | 32.70939 | 37599 ft | 484 kts | 96° |
| 2026-05-05 18:15 | 42.31443 | 32.75435 | 37924 ft | 485 kts | 96° |
| 2026-05-05 18:15 | 42.30933 | 32.79944 | 38257 ft | 486 kts | 97° |
| 2026-05-05 18:15 | 42.30419 | 32.84458 | 38560 ft | 486 kts | 97° |
| 2026-05-05 18:15 | 42.29904 | 32.88971 | 38878 ft | 487 kts | 97° |
| 2026-05-05 18:16 | 42.29388 | 32.93457 | 39003 ft | 492 kts | 97° |
| 2026-05-05 18:16 | 42.28336 | 33.02535 | 39011 ft | 483 kts | 98° |
| 2026-05-05 18:17 | 42.27297 | 33.11478 | 39000 ft | 486 kts | 97° |
| 2026-05-05 18:17 | 42.26235 | 33.20562 | 38994 ft | 487 kts | 98° |
| 2026-05-05 18:18 | 42.25179 | 33.29522 | 39001 ft | 487 kts | 98° |
| 2026-05-05 18:18 | 42.24109 | 33.38545 | 38996 ft | 488 kts | 98° |
| 2026-05-05 18:19 | 42.23029 | 33.47588 | 38999 ft | 488 kts | 98° |
| 2026-05-05 18:19 | 42.21939 | 33.56635 | 38989 ft | 489 kts | 98° |
| 2026-05-05 18:20 | 42.20843 | 33.65673 | 38987 ft | 489 kts | 98° |
| 2026-05-05 18:20 | 42.19740 | 33.74722 | 38990 ft | 489 kts | 98° |
| 2026-05-05 18:21 | 42.18632 | 33.83762 | 39011 ft | 488 kts | 99° |
| 2026-05-05 18:21 | 42.17516 | 33.92796 | 39013 ft | 488 kts | 99° |
| 2026-05-05 18:22 | 42.16392 | 34.01819 | 39008 ft | 489 kts | 99° |
| 2026-05-05 18:22 | 42.15262 | 34.10854 | 39027 ft | 489 kts | 99° |
| 2026-05-05 18:23 | 42.14125 | 34.19883 | 39027 ft | 489 kts | 99° |
| 2026-05-05 18:23 | 42.12986 | 34.28855 | 39034 ft | 489 kts | 99° |
| 2026-05-05 18:24 | 42.11834 | 34.37878 | 39045 ft | 489 kts | 99° |
| 2026-05-05 18:24 | 42.10666 | 34.46902 | 39058 ft | 489 kts | 100° |
| 2026-05-05 18:25 | 42.09418 | 34.55903 | 39054 ft | 489 kts | 100° |
| 2026-05-05 18:25 | 42.08159 | 34.64903 | 39062 ft | 489 kts | 100° |
| 2026-05-05 18:26 | 42.06903 | 34.73905 | 39069 ft | 490 kts | 100° |
| 2026-05-05 18:26 | 42.05640 | 34.82895 | 39076 ft | 489 kts | 100° |
| 2026-05-05 18:27 | 42.04396 | 34.91891 | 39072 ft | 489 kts | 100° |
| 2026-05-05 18:27 | 42.03203 | 35.00897 | 39073 ft | 489 kts | 100° |
| 2026-05-05 18:28 | 42.01939 | 35.14494 | 39067 ft | 489 kts | 94° |
| 2026-05-05 18:28 | 42.01467 | 35.23618 | 39065 ft | 489 kts | 94° |
| 2026-05-05 18:29 | 42.00975 | 35.32745 | 39067 ft | 490 kts | 94° |
| 2026-05-05 18:29 | 42.00482 | 35.41820 | 39065 ft | 490 kts | 94° |
| 2026-05-05 18:30 | 41.99973 | 35.51035 | 39060 ft | 491 kts | 95° |
| 2026-05-05 18:30 | 41.99465 | 35.60123 | 39051 ft | 492 kts | 95° |
| 2026-05-05 18:31 | 41.98942 | 35.69302 | 39057 ft | 493 kts | 95° |
| 2026-05-05 18:31 | 41.98412 | 35.78483 | 39064 ft | 493 kts | 95° |
| 2026-05-05 18:32 | 41.97874 | 35.87678 | 39068 ft | 494 kts | 95° |
| 2026-05-05 18:32 | 41.97327 | 35.96881 | 39071 ft | 494 kts | 95° |
| 2026-05-05 18:33 | 41.96776 | 36.06088 | 39072 ft | 494 kts | 95° |
| 2026-05-05 18:33 | 41.96214 | 36.15293 | 39073 ft | 494 kts | 95° |
| 2026-05-05 18:34 | 41.95646 | 36.24499 | 39064 ft | 494 kts | 95° |
| 2026-05-05 18:34 | 41.95073 | 36.33691 | 39067 ft | 494 kts | 95° |
| 2026-05-05 18:35 | 41.94491 | 36.42882 | 39062 ft | 493 kts | 96° |
| 2026-05-05 18:35 | 41.93899 | 36.52051 | 39061 ft | 493 kts | 96° |
| 2026-05-05 18:36 | 41.93302 | 36.61237 | 39058 ft | 493 kts | 96° |
| 2026-05-05 18:36 | 41.92701 | 36.70414 | 39066 ft | 493 kts | 96° |
| 2026-05-05 18:37 | 41.92095 | 36.79531 | 39071 ft | 494 kts | 96° |
| 2026-05-05 18:37 | 41.91477 | 36.88722 | 39070 ft | 494 kts | 96° |
| 2026-05-05 18:38 | 41.90794 | 36.97905 | 39069 ft | 494 kts | 99° |
| 2026-05-05 18:38 | 41.89326 | 37.06900 | 39070 ft | 493 kts | 108° |
| 2026-05-05 18:39 | 41.86940 | 37.15501 | 39073 ft | 492 kts | 114° |
| 2026-05-05 18:39 | 41.84276 | 37.23941 | 39077 ft | 492 kts | 114° |
| 2026-05-05 18:40 | 41.81617 | 37.32395 | 39079 ft | 492 kts | 114° |
| 2026-05-05 18:40 | 41.78946 | 37.40837 | 39079 ft | 492 kts | 114° |
| 2026-05-05 18:41 | 41.76269 | 37.49261 | 39076 ft | 491 kts | 114° |
| 2026-05-05 18:41 | 41.73585 | 37.57679 | 39079 ft | 491 kts | 114° |
| 2026-05-05 18:42 | 41.70897 | 37.66081 | 39072 ft | 490 kts | 114° |
| 2026-05-05 18:42 | 41.68225 | 37.74407 | 39069 ft | 490 kts | 115° |
| 2026-05-05 18:43 | 41.65533 | 37.82785 | 39070 ft | 490 kts | 115° |
| 2026-05-05 18:43 | 41.62840 | 37.91142 | 39068 ft | 490 kts | 115° |
| 2026-05-05 18:44 | 41.60138 | 37.99497 | 39070 ft | 490 kts | 115° |
| 2026-05-05 18:44 | 41.57428 | 38.07846 | 39072 ft | 490 kts | 115° |
| 2026-05-05 18:45 | 41.54712 | 38.16188 | 39074 ft | 490 kts | 115° |
| 2026-05-05 18:45 | 41.51989 | 38.24535 | 39071 ft | 490 kts | 115° |
| 2026-05-05 18:46 | 41.49254 | 38.32883 | 39072 ft | 491 kts | 115° |
| 2026-05-05 18:46 | 41.46519 | 38.41211 | 39072 ft | 491 kts | 115° |
| 2026-05-05 18:47 | 41.43771 | 38.49548 | 39073 ft | 491 kts | 115° |
| 2026-05-05 18:47 | 41.41018 | 38.57884 | 39072 ft | 491 kts | 115° |
| 2026-05-05 18:48 | 41.38257 | 38.66213 | 39073 ft | 492 kts | 116° |
| 2026-05-05 18:48 | 41.35506 | 38.74484 | 39073 ft | 492 kts | 116° |
| 2026-05-05 18:49 | 41.32738 | 38.82819 | 39073 ft | 492 kts | 115° |
| 2026-05-05 18:49 | 41.30011 | 38.91179 | 39069 ft | 492 kts | 115° |
| 2026-05-05 18:50 | 41.27284 | 38.99522 | 39074 ft | 492 kts | 115° |
| 2026-05-05 18:50 | 41.24541 | 39.07866 | 39072 ft | 493 kts | 116° |
| 2026-05-05 18:51 | 41.21787 | 39.16214 | 39075 ft | 493 kts | 116° |
| 2026-05-05 18:51 | 41.18955 | 39.24499 | 39081 ft | 492 kts | 117° |
| 2026-05-05 18:52 | 41.16053 | 39.32726 | 39075 ft | 493 kts | 117° |
| 2026-05-05 18:52 | 41.13157 | 39.40966 | 39077 ft | 493 kts | 117° |
| 2026-05-05 18:53 | 41.10261 | 39.49206 | 39072 ft | 492 kts | 117° |
| 2026-05-05 18:53 | 41.07368 | 39.57428 | 39072 ft | 492 kts | 117° |
| 2026-05-05 18:54 | 41.04465 | 39.65647 | 39072 ft | 493 kts | 117° |
| 2026-05-05 18:54 | 41.01665 | 39.73867 | 39070 ft | 494 kts | 113° |
| 2026-05-05 18:55 | 40.99825 | 39.82713 | 39070 ft | 498 kts | 102° |
| 2026-05-05 18:55 | 40.99221 | 39.91811 | 39069 ft | 501 kts | 93° |
| 2026-05-05 18:56 | 40.99031 | 40.01035 | 39069 ft | 502 kts | 94° |
| 2026-05-05 18:56 | 40.98798 | 40.10272 | 39058 ft | 503 kts | 94° |
| 2026-05-05 18:57 | 40.98558 | 40.19522 | 39065 ft | 504 kts | 94° |
| 2026-05-05 18:57 | 40.98309 | 40.28799 | 39062 ft | 504 kts | 95° |
| 2026-05-05 18:58 | 40.98051 | 40.38078 | 39065 ft | 505 kts | 95° |
| 2026-05-05 18:58 | 40.97785 | 40.47352 | 39055 ft | 505 kts | 95° |
| 2026-05-05 18:59 | 40.97511 | 40.56643 | 39053 ft | 505 kts | 95° |
| 2026-05-05 18:59 | 40.97232 | 40.65926 | 39053 ft | 505 kts | 95° |
| 2026-05-05 19:00 | 40.96946 | 40.75204 | 39050 ft | 505 kts | 95° |
| 2026-05-05 19:00 | 40.96652 | 40.84486 | 39046 ft | 504 kts | 95° |
| 2026-05-05 19:01 | 40.96348 | 40.93759 | 39042 ft | 504 kts | 95° |
| 2026-05-05 19:01 | 40.96035 | 41.03026 | 39042 ft | 505 kts | 95° |
| 2026-05-05 19:02 | 40.95720 | 41.12301 | 39041 ft | 505 kts | 96° |
| 2026-05-05 19:02 | 40.95396 | 41.21530 | 39040 ft | 506 kts | 96° |
| 2026-05-05 19:03 | 40.95062 | 41.30822 | 39034 ft | 506 kts | 96° |
| 2026-05-05 19:03 | 40.94727 | 41.40108 | 39026 ft | 505 kts | 96° |
| 2026-05-05 19:04 | 40.94436 | 41.47882 | 39027 ft | 506 kts | 96° |
| 2026-05-05 19:04 | 40.94085 | 41.57118 | 39034 ft | 507 kts | 96° |
| 2026-05-05 19:05 | 40.93722 | 41.66440 | 39030 ft | 508 kts | 96° |
| 2026-05-05 19:05 | 40.93351 | 41.75784 | 39035 ft | 509 kts | 96° |
| 2026-05-05 19:06 | 40.92974 | 41.85112 | 39038 ft | 508 kts | 96° |
| 2026-05-05 19:06 | 40.92587 | 41.94454 | 39013 ft | 509 kts | 96° |
| 2026-05-05 19:07 | 40.92193 | 42.03795 | 39015 ft | 509 kts | 96° |
| 2026-05-05 19:07 | 40.91792 | 42.13141 | 39014 ft | 509 kts | 97° |
| 2026-05-05 19:08 | 40.91382 | 42.22493 | 39006 ft | 509 kts | 97° |
| 2026-05-05 19:08 | 40.90965 | 42.31848 | 39021 ft | 510 kts | 97° |
| 2026-05-05 19:09 | 40.90540 | 42.41203 | 39014 ft | 510 kts | 97° |
| 2026-05-05 19:09 | 40.90107 | 42.50564 | 39010 ft | 510 kts | 97° |
| 2026-05-05 19:10 | 40.89668 | 42.59912 | 39006 ft | 510 kts | 97° |
| 2026-05-05 19:10 | 40.89218 | 42.69277 | 38999 ft | 511 kts | 97° |
| 2026-05-05 19:11 | 40.88766 | 42.78646 | 39004 ft | 511 kts | 97° |
| 2026-05-05 19:11 | 40.88301 | 42.88020 | 39004 ft | 511 kts | 97° |
| 2026-05-05 19:12 | 40.87829 | 42.97391 | 38999 ft | 511 kts | 98° |
| 2026-05-05 19:12 | 40.87351 | 43.06771 | 38996 ft | 512 kts | 98° |
| 2026-05-05 19:13 | 40.86862 | 43.16167 | 38990 ft | 513 kts | 98° |
| 2026-05-05 19:13 | 40.86367 | 43.25560 | 38994 ft | 513 kts | 98° |
| 2026-05-05 19:14 | 40.85863 | 43.34962 | 38999 ft | 513 kts | 98° |
| 2026-05-05 19:14 | 40.85354 | 43.44309 | 39000 ft | 514 kts | 98° |
| 2026-05-05 19:15 | 40.84836 | 43.53719 | 38992 ft | 513 kts | 98° |
| 2026-05-05 19:15 | 40.84310 | 43.63122 | 38987 ft | 514 kts | 98° |
| 2026-05-05 19:16 | 40.83545 | 43.72468 | 38992 ft | 510 kts | 104° |
| 2026-05-05 19:16 | 40.82438 | 43.81725 | 38984 ft | 511 kts | 103° |
| 2026-05-05 19:17 | 40.81360 | 43.90994 | 38986 ft | 511 kts | 103° |
| 2026-05-05 19:17 | 40.80264 | 44.00263 | 38984 ft | 511 kts | 103° |
| 2026-05-05 19:18 | 40.79157 | 44.09535 | 38982 ft | 512 kts | 104° |
| 2026-05-05 19:18 | 40.78040 | 44.18803 | 38970 ft | 512 kts | 104° |
| 2026-05-05 19:19 | 40.76916 | 44.28073 | 38979 ft | 512 kts | 104° |
| 2026-05-05 19:19 | 40.75782 | 44.37368 | 38974 ft | 512 kts | 104° |
| 2026-05-05 19:20 | 40.74639 | 44.46645 | 38982 ft | 512 kts | 104° |
| 2026-05-05 19:20 | 40.73491 | 44.55922 | 38953 ft | 513 kts | 104° |
| 2026-05-05 19:21 | 40.72335 | 44.65201 | 38950 ft | 513 kts | 104° |
| 2026-05-05 19:21 | 40.71171 | 44.74469 | 38934 ft | 512 kts | 104° |
| 2026-05-05 19:22 | 40.70002 | 44.83735 | 38930 ft | 512 kts | 104° |
| 2026-05-05 19:22 | 40.68826 | 44.92990 | 38933 ft | 513 kts | 105° |
| 2026-05-05 19:23 | 40.67637 | 45.02268 | 38910 ft | 514 kts | 105° |
| 2026-05-05 19:23 | 40.66444 | 45.11537 | 38909 ft | 512 kts | 105° |
| 2026-05-05 19:24 | 40.65245 | 45.20781 | 38913 ft | 512 kts | 105° |
| 2026-05-05 19:24 | 40.64039 | 45.30016 | 38908 ft | 512 kts | 105° |
| 2026-05-05 19:25 | 40.62835 | 45.39191 | 38913 ft | 513 kts | 105° |
| 2026-05-05 19:25 | 40.61612 | 45.48436 | 38914 ft | 513 kts | 106° |
| 2026-05-05 19:26 | 40.60379 | 45.57692 | 38936 ft | 514 kts | 106° |
| 2026-05-05 19:26 | 40.59139 | 45.66958 | 38937 ft | 514 kts | 106° |
| 2026-05-05 19:27 | 40.57892 | 45.76228 | 38940 ft | 515 kts | 106° |
| 2026-05-05 19:27 | 40.56634 | 45.85511 | 38935 ft | 515 kts | 106° |
| 2026-05-05 19:28 | 40.55370 | 45.94788 | 38937 ft | 516 kts | 106° |
| 2026-05-05 19:28 | 40.54100 | 46.04054 | 38936 ft | 515 kts | 107° |
| 2026-05-05 19:29 | 40.52822 | 46.13301 | 38935 ft | 514 kts | 107° |
| 2026-05-05 19:29 | 40.51540 | 46.22536 | 38934 ft | 513 kts | 107° |
| 2026-05-05 19:30 | 40.50246 | 46.31753 | 38935 ft | 514 kts | 107° |
| 2026-05-05 19:30 | 40.48951 | 46.40979 | 38944 ft | 514 kts | 107° |
| 2026-05-05 19:31 | 40.47646 | 46.50204 | 38945 ft | 514 kts | 107° |
| 2026-05-05 19:31 | 40.46332 | 46.59429 | 38947 ft | 514 kts | 107° |
| 2026-05-05 19:32 | 40.45011 | 46.68650 | 38946 ft | 514 kts | 107° |
| 2026-05-05 19:32 | 40.43683 | 46.77864 | 38957 ft | 514 kts | 107° |
| 2026-05-05 19:33 | 40.42350 | 46.87073 | 38970 ft | 514 kts | 107° |
| 2026-05-05 19:33 | 40.41006 | 46.96279 | 38970 ft | 513 kts | 107° |
| 2026-05-05 19:34 | 40.39658 | 47.05472 | 38969 ft | 513 kts | 107° |
| 2026-05-05 19:35 | 40.37624 | 47.19247 | 38973 ft | 513 kts | 108° |
| 2026-05-05 19:35 | 40.36268 | 47.28357 | 38965 ft | 512 kts | 108° |
| 2026-05-05 19:36 | 40.34898 | 47.37524 | 38964 ft | 512 kts | 108° |
| 2026-05-05 19:36 | 40.33520 | 47.46679 | 38962 ft | 512 kts | 108° |
| 2026-05-05 19:37 | 40.32135 | 47.55828 | 38960 ft | 512 kts | 108° |
| 2026-05-05 19:37 | 40.30742 | 47.64972 | 38954 ft | 512 kts | 108° |
| 2026-05-05 19:38 | 40.29342 | 47.74120 | 38957 ft | 512 kts | 108° |
| 2026-05-05 19:38 | 40.27935 | 47.83262 | 38951 ft | 513 kts | 108° |
| 2026-05-05 19:39 | 40.26520 | 47.92414 | 38953 ft | 513 kts | 108° |
| 2026-05-05 19:39 | 40.25096 | 48.01573 | 38957 ft | 513 kts | 108° |
| 2026-05-05 19:40 | 40.23664 | 48.10722 | 38948 ft | 513 kts | 108° |
| 2026-05-05 19:40 | 40.22226 | 48.19868 | 38948 ft | 513 kts | 108° |
| 2026-05-05 19:41 | 40.20791 | 48.28946 | 38946 ft | 513 kts | 109° |
| 2026-05-05 19:41 | 40.19331 | 48.38130 | 38945 ft | 513 kts | 109° |
| 2026-05-05 19:42 | 40.17871 | 48.47257 | 38946 ft | 513 kts | 109° |
| 2026-05-05 19:42 | 40.16403 | 48.56384 | 38948 ft | 513 kts | 109° |
| 2026-05-05 19:43 | 40.14939 | 48.65439 | 38954 ft | 512 kts | 109° |
| 2026-05-05 19:43 | 40.13455 | 48.74600 | 38956 ft | 512 kts | 109° |
| 2026-05-05 19:44 | 40.11978 | 48.83645 | 38958 ft | 512 kts | 109° |
| 2026-05-05 19:44 | 40.10478 | 48.92750 | 38962 ft | 513 kts | 110° |
| 2026-05-05 19:45 | 40.08974 | 49.01858 | 38966 ft | 513 kts | 110° |
| 2026-05-05 19:45 | 40.07465 | 49.10958 | 38964 ft | 513 kts | 110° |
| 2026-05-05 19:46 | 40.05951 | 49.20045 | 38977 ft | 512 kts | 110° |
| 2026-05-05 19:46 | 40.04430 | 49.29110 | 38996 ft | 512 kts | 110° |
| 2026-05-05 19:47 | 40.02903 | 49.38181 | 39001 ft | 512 kts | 110° |
| 2026-05-05 19:47 | 40.01365 | 49.47249 | 38991 ft | 512 kts | 111° |
| 2026-05-05 19:48 | 39.99820 | 49.56321 | 38995 ft | 512 kts | 111° |
| 2026-05-05 19:48 | 39.98264 | 49.65387 | 38993 ft | 512 kts | 111° |
| 2026-05-05 19:49 | 39.96705 | 49.74464 | 39003 ft | 512 kts | 111° |
| 2026-05-05 19:49 | 39.95141 | 49.83523 | 38996 ft | 512 kts | 111° |
| 2026-05-05 19:50 | 39.93570 | 49.92576 | 39000 ft | 512 kts | 111° |
| 2026-05-05 19:50 | 39.92259 | 50.00088 | 39001 ft | 512 kts | 111° |
| 2026-05-05 19:51 | 39.90676 | 50.09119 | 38991 ft | 511 kts | 111° |
| 2026-05-05 19:51 | 39.88831 | 50.19602 | 38987 ft | 511 kts | 111° |
| 2026-05-05 19:52 | 39.87493 | 50.27157 | 38989 ft | 511 kts | 111° |
| 2026-05-05 19:52 | 39.85891 | 50.36160 | 38982 ft | 511 kts | 111° |
| 2026-05-05 19:53 | 39.84280 | 50.45170 | 38982 ft | 511 kts | 111° |
| 2026-05-05 19:53 | 39.82673 | 50.54118 | 38975 ft | 512 kts | 111° |
| 2026-05-05 19:54 | 39.81045 | 50.63141 | 38977 ft | 513 kts | 111° |
| 2026-05-05 19:54 | 39.79407 | 50.72176 | 38976 ft | 514 kts | 111° |
| 2026-05-05 19:55 | 39.77760 | 50.81228 | 38982 ft | 515 kts | 111° |
| 2026-05-05 19:55 | 39.76102 | 50.90284 | 38978 ft | 516 kts | 111° |
| 2026-05-05 19:56 | 39.74432 | 50.99366 | 38979 ft | 517 kts | 111° |
| 2026-05-05 19:56 | 39.72751 | 51.08462 | 38980 ft | 518 kts | 111° |
| 2026-05-05 19:57 | 39.71060 | 51.17569 | 38976 ft | 519 kts | 111° |
| 2026-05-05 19:57 | 39.69363 | 51.26680 | 38973 ft | 519 kts | 111° |
| 2026-05-05 19:58 | 39.67655 | 51.35797 | 38982 ft | 520 kts | 111° |
| 2026-05-05 19:58 | 39.65940 | 51.44911 | 38971 ft | 521 kts | 111° |
| 2026-05-05 19:59 | 39.64282 | 51.54067 | 38977 ft | 523 kts | 108° |
| 2026-05-05 19:59 | 39.63035 | 51.63394 | 38970 ft | 525 kts | 106° |
| 2026-05-05 20:00 | 39.61790 | 51.72730 | 38962 ft | 525 kts | 107° |
| 2026-05-05 20:00 | 39.60487 | 51.82048 | 38959 ft | 525 kts | 107° |
| 2026-05-05 20:01 | 39.59164 | 51.91340 | 38958 ft | 524 kts | 107° |
| 2026-05-05 20:01 | 39.57833 | 52.00631 | 38954 ft | 524 kts | 107° |
| 2026-05-05 20:02 | 39.56494 | 52.09917 | 38951 ft | 524 kts | 107° |
| 2026-05-05 20:02 | 39.55147 | 52.19204 | 38949 ft | 525 kts | 107° |
| 2026-05-05 20:03 | 39.53795 | 52.28493 | 38948 ft | 525 kts | 107° |
| 2026-05-05 20:03 | 39.52434 | 52.37787 | 38937 ft | 525 kts | 107° |
| 2026-05-05 20:04 | 39.51065 | 52.47078 | 38940 ft | 526 kts | 107° |
| 2026-05-05 20:04 | 39.49685 | 52.56380 | 38939 ft | 526 kts | 107° |
| 2026-05-05 20:05 | 39.48297 | 52.65685 | 38940 ft | 527 kts | 107° |
| 2026-05-05 20:05 | 39.46900 | 52.75002 | 38935 ft | 527 kts | 107° |
| 2026-05-05 20:06 | 39.45494 | 52.84320 | 38943 ft | 528 kts | 107° |
| 2026-05-05 20:06 | 39.44079 | 52.93648 | 38939 ft | 529 kts | 107° |
| 2026-05-05 20:07 | 39.42654 | 53.02992 | 38945 ft | 530 kts | 107° |
| 2026-05-05 20:07 | 39.41218 | 53.12350 | 38948 ft | 531 kts | 107° |
| 2026-05-05 20:08 | 39.39781 | 53.21651 | 38946 ft | 531 kts | 107° |
| 2026-05-05 20:08 | 39.38330 | 53.31008 | 38941 ft | 531 kts | 107° |
| 2026-05-05 20:09 | 39.36869 | 53.40381 | 38951 ft | 532 kts | 107° |
| 2026-05-05 20:09 | 39.35399 | 53.49749 | 38943 ft | 532 kts | 107° |
| 2026-05-05 20:10 | 39.33922 | 53.59120 | 38945 ft | 533 kts | 107° |
| 2026-05-05 20:10 | 39.32435 | 53.68493 | 38950 ft | 533 kts | 107° |
| 2026-05-05 20:11 | 39.30942 | 53.77871 | 38952 ft | 533 kts | 107° |
| 2026-05-05 20:11 | 39.29440 | 53.87248 | 38954 ft | 533 kts | 107° |
| 2026-05-05 20:12 | 39.27926 | 53.96612 | 38950 ft | 533 kts | 107° |
| 2026-05-05 20:12 | 39.26409 | 54.05972 | 38927 ft | 533 kts | 107° |
| 2026-05-05 20:13 | 39.24880 | 54.15339 | 38930 ft | 534 kts | 107° |
| 2026-05-05 20:13 | 39.23338 | 54.24716 | 38932 ft | 535 kts | 107° |
| 2026-05-05 20:14 | 39.21799 | 54.34097 | 38944 ft | 535 kts | 107° |
| 2026-05-05 20:14 | 39.20241 | 54.43493 | 38952 ft | 536 kts | 107° |
| 2026-05-05 20:15 | 39.18678 | 54.52900 | 38960 ft | 536 kts | 107° |
| 2026-05-05 20:15 | 39.17110 | 54.62297 | 38958 ft | 537 kts | 107° |
| 2026-05-05 20:16 | 39.15520 | 54.71701 | 38961 ft | 537 kts | 107° |
| 2026-05-05 20:16 | 39.13932 | 54.81058 | 38967 ft | 538 kts | 107° |
| 2026-05-05 20:17 | 39.12331 | 54.90472 | 38974 ft | 538 kts | 107° |
| 2026-05-05 20:17 | 39.10717 | 54.99889 | 38967 ft | 539 kts | 107° |
| 2026-05-05 20:18 | 39.09101 | 55.09311 | 38975 ft | 539 kts | 107° |
| 2026-05-05 20:18 | 39.07472 | 55.18747 | 38976 ft | 540 kts | 107° |
| 2026-05-05 20:19 | 39.05833 | 55.28173 | 38973 ft | 540 kts | 107° |
| 2026-05-05 20:19 | 39.04185 | 55.37602 | 38973 ft | 540 kts | 107° |
| 2026-05-05 20:20 | 39.02531 | 55.47031 | 38971 ft | 541 kts | 107° |
| 2026-05-05 20:20 | 39.00867 | 55.56461 | 38979 ft | 541 kts | 107° |
| 2026-05-05 20:21 | 38.99197 | 55.65893 | 38982 ft | 541 kts | 107° |
| 2026-05-05 20:21 | 38.97524 | 55.75326 | 38980 ft | 542 kts | 107° |
| 2026-05-05 20:22 | 38.95852 | 55.84699 | 38989 ft | 542 kts | 107° |
| 2026-05-05 20:22 | 38.94156 | 55.94133 | 38997 ft | 542 kts | 107° |
| 2026-05-05 20:23 | 38.92455 | 56.03559 | 38989 ft | 542 kts | 107° |
| 2026-05-05 20:23 | 38.90748 | 56.12978 | 38989 ft | 542 kts | 106° |
| 2026-05-05 20:24 | 38.89034 | 56.22399 | 38997 ft | 542 kts | 106° |
| 2026-05-05 20:24 | 38.87314 | 56.31800 | 38993 ft | 541 kts | 106° |
| 2026-05-05 20:25 | 38.85585 | 56.41208 | 38993 ft | 541 kts | 106° |
| 2026-05-05 20:25 | 38.83851 | 56.50587 | 38999 ft | 541 kts | 106° |
| 2026-05-05 20:26 | 38.82109 | 56.59966 | 38993 ft | 540 kts | 106° |
| 2026-05-05 20:26 | 38.80363 | 56.69326 | 39005 ft | 539 kts | 106° |
| 2026-05-05 20:27 | 38.78610 | 56.78668 | 39001 ft | 538 kts | 106° |
| 2026-05-05 20:27 | 38.76855 | 56.87981 | 38996 ft | 538 kts | 106° |
| 2026-05-05 20:28 | 38.75094 | 56.97287 | 39002 ft | 537 kts | 106° |
| 2026-05-05 20:28 | 38.73327 | 57.06577 | 38994 ft | 537 kts | 106° |
| 2026-05-05 20:29 | 38.71553 | 57.15861 | 39000 ft | 536 kts | 106° |
| 2026-05-05 20:29 | 38.69778 | 57.25110 | 39001 ft | 535 kts | 106° |
| 2026-05-05 20:30 | 38.67997 | 57.34352 | 38995 ft | 534 kts | 106° |
| 2026-05-05 20:30 | 38.66206 | 57.43594 | 38917 ft | 536 kts | 106° |
| 2026-05-05 20:31 | 38.64409 | 57.52831 | 38909 ft | 535 kts | 106° |
| 2026-05-05 20:31 | 38.62606 | 57.62045 | 38901 ft | 533 kts | 107° |
| 2026-05-05 20:32 | 38.60195 | 57.70954 | 38893 ft | 528 kts | 117° |
| 2026-05-05 20:32 | 38.57174 | 57.79496 | 38882 ft | 527 kts | 117° |
| 2026-05-05 20:33 | 38.54187 | 57.88049 | 38875 ft | 527 kts | 117° |
| 2026-05-05 20:33 | 38.51217 | 57.96517 | 38874 ft | 526 kts | 117° |
| 2026-05-05 20:34 | 38.48217 | 58.05032 | 38869 ft | 525 kts | 117° |
| 2026-05-05 20:34 | 38.45215 | 58.13534 | 38857 ft | 525 kts | 117° |
| 2026-05-05 20:35 | 38.42211 | 58.22018 | 38852 ft | 525 kts | 117° |
| 2026-05-05 20:35 | 38.39529 | 58.30672 | 38842 ft | 528 kts | 108° |
| 2026-05-05 20:36 | 38.37714 | 58.39763 | 38841 ft | 529 kts | 106° |
| 2026-05-05 20:36 | 38.35906 | 58.48854 | 38833 ft | 529 kts | 106° |
| 2026-05-05 20:37 | 38.34084 | 58.57940 | 38834 ft | 529 kts | 106° |
| 2026-05-05 20:37 | 38.32566 | 58.65493 | 38835 ft | 529 kts | 106° |
| 2026-05-05 20:38 | 38.30736 | 58.74559 | 38846 ft | 529 kts | 107° |
| 2026-05-05 20:38 | 38.28895 | 58.83632 | 38843 ft | 529 kts | 106° |
| 2026-05-05 20:39 | 38.27052 | 58.92684 | 38840 ft | 528 kts | 106° |
| 2026-05-05 20:39 | 38.25200 | 59.01729 | 38844 ft | 528 kts | 106° |
| 2026-05-05 20:40 | 38.23346 | 59.10761 | 38854 ft | 527 kts | 106° |
| 2026-05-05 20:40 | 38.21488 | 59.19780 | 38856 ft | 527 kts | 106° |
| 2026-05-05 20:41 | 38.19623 | 59.28784 | 38860 ft | 526 kts | 106° |
| 2026-05-05 20:41 | 38.17754 | 59.37773 | 38861 ft | 526 kts | 106° |
| 2026-05-05 20:42 | 38.15879 | 59.46750 | 38868 ft | 525 kts | 106° |
| 2026-05-05 20:42 | 38.14003 | 59.55705 | 38873 ft | 525 kts | 106° |
| 2026-05-05 20:43 | 38.12117 | 59.64657 | 38873 ft | 524 kts | 106° |
| 2026-05-05 20:43 | 38.10237 | 59.73547 | 38852 ft | 524 kts | 106° |
| 2026-05-05 20:44 | 38.08328 | 59.82539 | 38852 ft | 524 kts | 106° |
| 2026-05-05 20:44 | 38.06440 | 59.91392 | 38852 ft | 523 kts | 106° |
| 2026-05-05 20:45 | 38.03577 | 60.04754 | 38855 ft | 523 kts | 106° |
| 2026-05-05 20:45 | 38.01659 | 60.13657 | 38856 ft | 523 kts | 106° |
| 2026-05-05 20:46 | 37.99736 | 60.22556 | 38868 ft | 523 kts | 106° |
| 2026-05-05 20:46 | 37.97799 | 60.31441 | 38885 ft | 523 kts | 106° |
| 2026-05-05 20:47 | 37.95855 | 60.40329 | 38894 ft | 524 kts | 106° |
| 2026-05-05 20:47 | 37.93904 | 60.49226 | 38899 ft | 524 kts | 106° |
| 2026-05-05 20:48 | 37.91946 | 60.58127 | 38897 ft | 526 kts | 106° |
| 2026-05-05 20:48 | 37.89970 | 60.67054 | 38901 ft | 527 kts | 106° |
| 2026-05-05 20:49 | 37.87983 | 60.75996 | 38904 ft | 528 kts | 106° |
| 2026-05-05 20:49 | 37.85988 | 60.84950 | 38898 ft | 529 kts | 106° |
| 2026-05-05 20:50 | 37.83983 | 60.93914 | 38898 ft | 530 kts | 106° |
| 2026-05-05 20:50 | 37.81968 | 61.02885 | 38901 ft | 530 kts | 106° |
| 2026-05-05 20:51 | 37.79957 | 61.11796 | 38898 ft | 530 kts | 106° |
| 2026-05-05 20:51 | 37.77927 | 61.20760 | 38895 ft | 531 kts | 106° |
| 2026-05-05 20:52 | 37.75890 | 61.29724 | 38892 ft | 531 kts | 106° |
| 2026-05-05 20:52 | 37.73841 | 61.38707 | 38893 ft | 531 kts | 106° |
| 2026-05-05 20:53 | 37.71791 | 61.47666 | 38895 ft | 531 kts | 106° |
| 2026-05-05 20:53 | 37.69731 | 61.56616 | 38891 ft | 531 kts | 106° |
| 2026-05-05 20:54 | 37.67669 | 61.65549 | 38891 ft | 530 kts | 106° |
| 2026-05-05 20:54 | 37.65596 | 61.74486 | 38891 ft | 530 kts | 106° |
| 2026-05-05 20:55 | 37.63445 | 61.83380 | 38887 ft | 530 kts | 111° |
| 2026-05-05 20:55 | 37.60338 | 61.91775 | 38885 ft | 528 kts | 122° |
| 2026-05-05 20:56 | 37.56194 | 61.99379 | 38883 ft | 526 kts | 129° |
| 2026-05-05 20:56 | 37.51834 | 62.06785 | 38882 ft | 526 kts | 128° |
| 2026-05-05 20:57 | 37.47482 | 62.14199 | 38883 ft | 526 kts | 128° |
| 2026-05-05 20:57 | 37.43115 | 62.21603 | 38876 ft | 527 kts | 128° |
| 2026-05-05 20:58 | 37.38742 | 62.29001 | 38880 ft | 527 kts | 128° |
| 2026-05-05 20:58 | 37.34355 | 62.36399 | 38881 ft | 528 kts | 128° |
| 2026-05-05 20:59 | 37.29959 | 62.43798 | 38879 ft | 529 kts | 128° |
| 2026-05-05 20:59 | 37.25548 | 62.51201 | 38894 ft | 530 kts | 128° |
| 2026-05-05 21:00 | 37.21129 | 62.58609 | 38899 ft | 530 kts | 128° |
| 2026-05-05 21:00 | 37.16728 | 62.65969 | 38895 ft | 531 kts | 129° |
| 2026-05-05 21:01 | 37.12289 | 62.73374 | 38899 ft | 532 kts | 129° |
| 2026-05-05 21:01 | 37.07838 | 62.80781 | 38911 ft | 532 kts | 129° |
| 2026-05-05 21:02 | 37.03382 | 62.88187 | 38910 ft | 533 kts | 129° |
| 2026-05-05 21:02 | 36.98920 | 62.95588 | 38902 ft | 533 kts | 129° |
| 2026-05-05 21:03 | 36.94447 | 63.02985 | 38905 ft | 533 kts | 129° |
| 2026-05-05 21:03 | 36.89964 | 63.10379 | 38908 ft | 534 kts | 129° |
| 2026-05-05 21:04 | 36.85477 | 63.17768 | 38911 ft | 534 kts | 129° |
| 2026-05-05 21:04 | 36.80990 | 63.25140 | 38911 ft | 534 kts | 129° |
| 2026-05-05 21:05 | 36.76487 | 63.32522 | 38913 ft | 534 kts | 129° |
| 2026-05-05 21:05 | 36.71981 | 63.39892 | 38910 ft | 535 kts | 129° |
| 2026-05-05 21:06 | 36.67466 | 63.47262 | 38911 ft | 535 kts | 129° |
| 2026-05-05 21:06 | 36.62972 | 63.54580 | 38913 ft | 535 kts | 129° |
| 2026-05-05 21:07 | 36.58441 | 63.61946 | 38915 ft | 536 kts | 129° |
| 2026-05-05 21:07 | 36.53900 | 63.69309 | 38939 ft | 536 kts | 129° |
| 2026-05-05 21:08 | 36.49353 | 63.76660 | 38934 ft | 537 kts | 129° |
| 2026-05-05 21:08 | 36.44795 | 63.84021 | 38934 ft | 537 kts | 129° |
| 2026-05-05 21:09 | 36.40230 | 63.91380 | 38933 ft | 538 kts | 129° |
| 2026-05-05 21:09 | 36.35654 | 63.98736 | 38938 ft | 538 kts | 129° |
| 2026-05-05 21:10 | 36.31069 | 64.06091 | 38901 ft | 539 kts | 129° |
| 2026-05-05 21:10 | 36.26482 | 64.13435 | 38947 ft | 539 kts | 129° |
| 2026-05-05 21:11 | 36.21896 | 64.20757 | 38944 ft | 537 kts | 129° |
| 2026-05-05 21:11 | 36.17320 | 64.28057 | 38936 ft | 536 kts | 129° |
| 2026-05-05 21:12 | 36.12839 | 64.35424 | 38932 ft | 535 kts | 127° |
| 2026-05-05 21:12 | 36.08463 | 64.42879 | 38910 ft | 534 kts | 127° |
| 2026-05-05 21:13 | 36.04106 | 64.50237 | 38911 ft | 533 kts | 127° |
| 2026-05-05 21:13 | 35.99708 | 64.57615 | 38914 ft | 533 kts | 128° |
| 2026-05-05 21:14 | 35.95306 | 64.64978 | 38888 ft | 533 kts | 128° |
| 2026-05-05 21:14 | 35.90902 | 64.72334 | 38892 ft | 533 kts | 128° |
| 2026-05-05 21:15 | 35.86481 | 64.79702 | 38892 ft | 535 kts | 128° |
| 2026-05-05 21:15 | 35.82040 | 64.87085 | 38900 ft | 537 kts | 128° |
| 2026-05-05 21:16 | 35.77577 | 64.94484 | 38911 ft | 539 kts | 128° |
| 2026-05-05 21:16 | 35.73098 | 65.01906 | 38933 ft | 541 kts | 128° |
| 2026-05-05 21:17 | 35.68591 | 65.09349 | 38943 ft | 543 kts | 128° |
| 2026-05-05 21:17 | 35.64071 | 65.16790 | 38951 ft | 544 kts | 128° |
| 2026-05-05 21:18 | 35.59539 | 65.24251 | 38949 ft | 545 kts | 128° |
| 2026-05-05 21:18 | 35.54987 | 65.31720 | 38961 ft | 546 kts | 128° |
| 2026-05-05 21:19 | 35.50433 | 65.39182 | 38965 ft | 546 kts | 128° |
| 2026-05-05 21:19 | 35.45876 | 65.46620 | 38958 ft | 545 kts | 128° |
| 2026-05-05 21:20 | 35.41320 | 65.54047 | 38958 ft | 545 kts | 128° |
| 2026-05-05 21:20 | 35.36769 | 65.61459 | 38952 ft | 544 kts | 128° |
| 2026-05-05 21:21 | 35.32210 | 65.68857 | 38945 ft | 544 kts | 128° |
| 2026-05-05 21:21 | 35.27658 | 65.76237 | 38942 ft | 543 kts | 128° |
| 2026-05-05 21:22 | 35.23097 | 65.83607 | 38943 ft | 543 kts | 128° |
| 2026-05-05 21:22 | 35.18536 | 65.90969 | 38935 ft | 543 kts | 128° |
| 2026-05-05 21:23 | 35.13974 | 65.98321 | 38930 ft | 543 kts | 128° |
| 2026-05-05 21:23 | 35.09422 | 66.05632 | 38934 ft | 544 kts | 128° |
| 2026-05-05 21:24 | 35.04836 | 66.12978 | 38933 ft | 545 kts | 128° |
| 2026-05-05 21:24 | 35.00238 | 66.20345 | 38932 ft | 547 kts | 128° |
| 2026-05-05 21:25 | 34.95613 | 66.27734 | 38937 ft | 549 kts | 128° |
| 2026-05-05 21:25 | 34.90937 | 66.35099 | 38946 ft | 550 kts | 129° |
| 2026-05-05 21:26 | 34.87034 | 66.41221 | 38950 ft | 550 kts | 129° |
| 2026-05-05 21:26 | 34.82341 | 66.48582 | 38954 ft | 551 kts | 129° |
| 2026-05-05 21:27 | 34.77637 | 66.55949 | 38950 ft | 551 kts | 129° |
| 2026-05-05 21:27 | 34.72936 | 66.63312 | 38950 ft | 551 kts | 129° |
| 2026-05-05 21:28 | 34.68222 | 66.70658 | 38947 ft | 551 kts | 129° |
| 2026-05-05 21:28 | 34.63502 | 66.78003 | 38947 ft | 551 kts | 129° |
| 2026-05-05 21:29 | 34.58776 | 66.85344 | 38941 ft | 552 kts | 129° |
| 2026-05-05 21:29 | 34.54049 | 66.92676 | 38941 ft | 552 kts | 129° |
| 2026-05-05 21:30 | 34.49313 | 66.99996 | 38936 ft | 552 kts | 129° |
| 2026-05-05 21:30 | 34.44573 | 67.07308 | 38933 ft | 552 kts | 129° |
| 2026-05-05 21:31 | 34.39828 | 67.14613 | 38929 ft | 552 kts | 129° |
| 2026-05-05 21:31 | 34.35077 | 67.21903 | 38915 ft | 551 kts | 129° |
| 2026-05-05 21:32 | 34.30325 | 67.29183 | 38913 ft | 551 kts | 129° |
| 2026-05-05 21:32 | 34.25578 | 67.36445 | 38936 ft | 551 kts | 129° |
| 2026-05-05 21:33 | 34.20848 | 67.43669 | 38934 ft | 551 kts | 129° |
| 2026-05-05 21:33 | 34.16076 | 67.50927 | 38941 ft | 552 kts | 129° |
| 2026-05-05 21:34 | 34.11293 | 67.58201 | 38925 ft | 553 kts | 129° |
| 2026-05-05 21:34 | 34.06502 | 67.65472 | 38934 ft | 554 kts | 129° |
| 2026-05-05 21:35 | 34.01701 | 67.72733 | 38930 ft | 554 kts | 129° |
| 2026-05-05 21:35 | 33.96891 | 67.79991 | 38930 ft | 554 kts | 129° |
| 2026-05-05 21:36 | 33.92039 | 67.87203 | 38908 ft | 554 kts | 130° |
| 2026-05-05 21:36 | 33.87176 | 67.94403 | 38910 ft | 554 kts | 130° |
| 2026-05-05 21:37 | 33.82347 | 68.01547 | 38909 ft | 554 kts | 130° |
| 2026-05-05 21:37 | 33.77483 | 68.08732 | 38905 ft | 554 kts | 130° |
| 2026-05-05 21:38 | 33.72621 | 68.15893 | 38900 ft | 553 kts | 130° |
| 2026-05-05 21:38 | 33.67736 | 68.23082 | 39205 ft | 557 kts | 130° |
| 2026-05-05 21:39 | 33.65287 | 68.26683 | 39570 ft | 558 kts | 130° |
| 2026-05-05 21:39 | 33.62833 | 68.30287 | 39959 ft | 557 kts | 130° |
| 2026-05-05 21:39 | 33.60377 | 68.33888 | 40322 ft | 557 kts | 130° |
| 2026-05-05 21:39 | 33.57917 | 68.37490 | 40658 ft | 559 kts | 130° |
| 2026-05-05 21:40 | 33.55448 | 68.41100 | 40888 ft | 562 kts | 130° |
| 2026-05-05 21:40 | 33.52951 | 68.44720 | 40891 ft | 561 kts | 131° |
| 2026-05-05 21:40 | 33.47919 | 68.51757 | 40887 ft | 554 kts | 132° |
| 2026-05-05 21:41 | 33.42882 | 68.58773 | 40890 ft | 556 kts | 132° |
| 2026-05-05 21:41 | 33.37846 | 68.65806 | 40893 ft | 556 kts | 132° |
| 2026-05-05 21:42 | 33.32811 | 68.72835 | 40892 ft | 557 kts | 132° |
| 2026-05-05 21:42 | 33.27762 | 68.79869 | 40886 ft | 557 kts | 132° |
| 2026-05-05 21:43 | 33.22946 | 68.87133 | 40892 ft | 558 kts | 128° |
| 2026-05-05 21:43 | 33.18283 | 68.94548 | 40893 ft | 558 kts | 128° |
| 2026-05-05 21:44 | 33.13564 | 69.01915 | 40891 ft | 559 kts | 129° |
| 2026-05-05 21:44 | 33.08821 | 69.09255 | 40888 ft | 558 kts | 129° |
| 2026-05-05 21:45 | 33.04073 | 69.16584 | 40878 ft | 558 kts | 129° |
| 2026-05-05 21:45 | 32.99323 | 69.23901 | 40871 ft | 558 kts | 129° |
| 2026-05-05 21:46 | 32.94603 | 69.31160 | 40884 ft | 558 kts | 129° |
| 2026-05-05 21:46 | 32.89848 | 69.38456 | 40859 ft | 558 kts | 129° |
| 2026-05-05 21:47 | 32.85088 | 69.45745 | 40861 ft | 558 kts | 129° |
| 2026-05-05 21:47 | 32.80307 | 69.53019 | 40860 ft | 559 kts | 129° |
| 2026-05-05 21:48 | 32.75515 | 69.60296 | 40880 ft | 559 kts | 129° |
| 2026-05-05 21:48 | 32.70716 | 69.67571 | 40868 ft | 560 kts | 129° |
| 2026-05-05 21:49 | 32.65899 | 69.74862 | 40873 ft | 561 kts | 129° |
| 2026-05-05 21:49 | 32.61082 | 69.82138 | 40873 ft | 561 kts | 129° |
| 2026-05-05 21:50 | 32.56262 | 69.89405 | 40858 ft | 561 kts | 129° |
| 2026-05-05 21:50 | 32.51427 | 69.96679 | 40868 ft | 562 kts | 130° |
| 2026-05-05 21:51 | 32.46586 | 70.03946 | 40878 ft | 562 kts | 130° |
| 2026-05-05 21:51 | 32.41737 | 70.11215 | 40879 ft | 563 kts | 129° |
| 2026-05-05 21:52 | 32.34473 | 70.22136 | 40881 ft | 564 kts | 129° |
| 2026-05-05 21:53 | 32.29726 | 70.29521 | 40880 ft | 564 kts | 128° |
| 2026-05-05 21:53 | 32.24970 | 70.36898 | 40877 ft | 564 kts | 129° |
| 2026-05-05 21:54 | 32.20230 | 70.44209 | 40878 ft | 564 kts | 129° |
| 2026-05-05 21:54 | 32.15453 | 70.51556 | 40868 ft | 564 kts | 129° |
| 2026-05-05 21:55 | 32.10674 | 70.58893 | 40862 ft | 564 kts | 129° |
| 2026-05-05 21:55 | 32.05898 | 70.66210 | 40860 ft | 563 kts | 129° |
| 2026-05-05 21:56 | 32.01118 | 70.73521 | 40853 ft | 563 kts | 129° |
| 2026-05-05 21:56 | 31.96340 | 70.80815 | 40853 ft | 562 kts | 129° |
| 2026-05-05 21:57 | 31.91649 | 70.88183 | 40851 ft | 563 kts | 124° |
| 2026-05-05 21:57 | 31.87807 | 70.96210 | 40848 ft | 563 kts | 117° |
| 2026-05-05 21:58 | 31.84164 | 71.04371 | 40852 ft | 563 kts | 118° |
| 2026-05-05 21:58 | 31.80500 | 71.12509 | 40852 ft | 564 kts | 118° |
| 2026-05-05 21:59 | 31.76823 | 71.20656 | 40854 ft | 564 kts | 118° |
| 2026-05-05 21:59 | 31.73136 | 71.28809 | 40850 ft | 565 kts | 118° |
| 2026-05-05 22:00 | 31.69448 | 71.36947 | 40856 ft | 565 kts | 118° |
| 2026-05-05 22:00 | 31.65751 | 71.45088 | 40855 ft | 565 kts | 118° |
| 2026-05-05 22:01 | 31.62053 | 71.53211 | 40861 ft | 565 kts | 118° |
| 2026-05-05 22:01 | 31.58345 | 71.61342 | 40882 ft | 565 kts | 118° |
| 2026-05-05 22:02 | 31.54654 | 71.69407 | 40880 ft | 565 kts | 118° |
| 2026-05-05 22:02 | 31.50932 | 71.77519 | 40880 ft | 565 kts | 118° |
| 2026-05-05 22:03 | 31.47207 | 71.85621 | 40860 ft | 565 kts | 118° |
| 2026-05-05 22:03 | 31.43473 | 71.93726 | 40857 ft | 565 kts | 118° |
| 2026-05-05 22:04 | 31.39737 | 72.01817 | 40860 ft | 565 kts | 118° |
| 2026-05-05 22:04 | 31.35996 | 72.09901 | 40882 ft | 565 kts | 118° |
| 2026-05-05 22:05 | 31.32252 | 72.17974 | 40879 ft | 564 kts | 118° |
| 2026-05-05 22:05 | 31.28889 | 72.26227 | 40877 ft | 562 kts | 106° |
| 2026-05-05 22:06 | 31.27579 | 72.35157 | 40874 ft | 555 kts | 87° |
| 2026-05-05 22:06 | 31.28284 | 72.44049 | 40858 ft | 549 kts | 78° |
| 2026-05-05 22:07 | 31.29288 | 72.52905 | 40861 ft | 549 kts | 78° |
| 2026-05-05 22:07 | 31.30270 | 72.61761 | 40873 ft | 549 kts | 78° |
| 2026-05-05 22:08 | 31.31250 | 72.70628 | 40881 ft | 550 kts | 78° |
| 2026-05-05 22:08 | 31.32225 | 72.79488 | 40886 ft | 550 kts | 78° |
| 2026-05-05 22:09 | 31.33195 | 72.88358 | 40886 ft | 550 kts | 78° |
| 2026-05-05 22:09 | 31.34153 | 72.97169 | 40887 ft | 550 kts | 78° |
| 2026-05-05 22:10 | 31.35117 | 73.06099 | 40886 ft | 550 kts | 79° |
| 2026-05-05 22:10 | 31.36069 | 73.14971 | 40894 ft | 550 kts | 79° |
| 2026-05-05 22:11 | 31.37009 | 73.23793 | 40879 ft | 550 kts | 79° |
| 2026-05-05 22:11 | 31.37955 | 73.32728 | 40877 ft | 549 kts | 79° |
| 2026-05-05 22:12 | 31.38888 | 73.41595 | 40886 ft | 549 kts | 79° |
| 2026-05-05 22:12 | 31.39807 | 73.50400 | 40885 ft | 549 kts | 79° |
| 2026-05-05 22:13 | 31.40726 | 73.59257 | 40878 ft | 548 kts | 79° |
| 2026-05-05 22:13 | 31.41639 | 73.68112 | 40882 ft | 548 kts | 79° |
| 2026-05-05 22:14 | 31.42545 | 73.76969 | 40867 ft | 547 kts | 79° |
| 2026-05-05 22:14 | 31.43442 | 73.85825 | 40857 ft | 547 kts | 79° |
| 2026-05-05 22:15 | 31.44176 | 73.93178 | 40853 ft | 548 kts | 81° |
| 2026-05-05 22:15 | 31.44320 | 74.02115 | 40852 ft | 552 kts | 91° |
| 2026-05-05 22:16 | 31.43262 | 74.11042 | 40856 ft | 555 kts | 101° |
| 2026-05-05 22:16 | 31.41590 | 74.19861 | 40855 ft | 555 kts | 101° |
| 2026-05-05 22:17 | 31.39944 | 74.28694 | 40859 ft | 555 kts | 101° |
| 2026-05-05 22:17 | 31.38281 | 74.37524 | 40858 ft | 556 kts | 101° |
| 2026-05-05 22:18 | 31.36609 | 74.46348 | 40860 ft | 556 kts | 101° |
| 2026-05-05 22:18 | 31.34008 | 74.54839 | 40857 ft | 556 kts | 119° |
| 2026-05-05 22:19 | 31.29550 | 74.62149 | 40857 ft | 551 kts | 137° |
| 2026-05-05 22:19 | 31.24001 | 74.68284 | 40858 ft | 549 kts | 140° |
| 2026-05-05 22:20 | 31.18442 | 74.74405 | 40876 ft | 549 kts | 140° |
| 2026-05-05 22:20 | 31.12878 | 74.80515 | 40860 ft | 549 kts | 140° |
| 2026-05-05 22:21 | 31.07306 | 74.86611 | 40856 ft | 549 kts | 140° |
| 2026-05-05 22:21 | 31.01732 | 74.92699 | 40860 ft | 549 kts | 140° |
| 2026-05-05 22:22 | 30.96157 | 74.98778 | 40855 ft | 549 kts | 140° |
| 2026-05-05 22:22 | 30.90617 | 75.04809 | 40860 ft | 549 kts | 140° |
| 2026-05-05 22:23 | 30.85003 | 75.10816 | 40862 ft | 546 kts | 144° |
| 2026-05-05 22:23 | 30.78759 | 75.15711 | 40873 ft | 538 kts | 157° |
| 2026-05-05 22:24 | 30.71941 | 75.19050 | 40875 ft | 527 kts | 169° |
| 2026-05-05 22:24 | 30.64936 | 75.21596 | 40869 ft | 528 kts | 168° |
| 2026-05-05 22:25 | 30.57932 | 75.24184 | 40860 ft | 528 kts | 168° |
| 2026-05-05 22:25 | 30.50934 | 75.26766 | 40874 ft | 528 kts | 168° |
| 2026-05-05 22:26 | 30.43930 | 75.29342 | 40871 ft | 528 kts | 169° |
| 2026-05-05 22:26 | 30.36921 | 75.31915 | 40872 ft | 528 kts | 169° |
| 2026-05-05 22:27 | 30.29915 | 75.34483 | 40876 ft | 528 kts | 169° |
| 2026-05-05 22:27 | 30.22908 | 75.37048 | 40875 ft | 528 kts | 169° |
| 2026-05-05 22:28 | 30.15895 | 75.39611 | 40876 ft | 528 kts | 169° |
| 2026-05-05 22:28 | 30.08898 | 75.42165 | 40870 ft | 528 kts | 169° |
| 2026-05-05 22:29 | 30.01901 | 75.44715 | 40876 ft | 527 kts | 169° |
| 2026-05-05 22:29 | 29.94902 | 75.47262 | 40875 ft | 527 kts | 169° |
| 2026-05-05 22:30 | 29.88039 | 75.50152 | 40862 ft | 535 kts | 159° |
| 2026-05-05 22:30 | 29.81740 | 75.54862 | 40868 ft | 547 kts | 144° |
| 2026-05-05 22:31 | 29.76425 | 75.61201 | 40861 ft | 553 kts | 135° |
| 2026-05-05 22:31 | 29.71344 | 75.67830 | 40880 ft | 552 kts | 135° |
| 2026-05-05 22:31 | 29.68800 | 75.71125 | 40705 ft | 549 kts | 135° |
| 2026-05-05 22:32 | 29.66273 | 75.74393 | 40457 ft | 545 kts | 135° |
| 2026-05-05 22:32 | 29.63752 | 75.77652 | 40209 ft | 545 kts | 135° |
| 2026-05-05 22:32 | 29.61233 | 75.80905 | 39951 ft | 546 kts | 135° |
| 2026-05-05 22:32 | 29.58707 | 75.84165 | 39424 ft | 546 kts | 135° |
| 2026-05-05 22:33 | 29.56177 | 75.87425 | 38673 ft | 548 kts | 135° |
| 2026-05-05 22:33 | 29.53636 | 75.90698 | 37857 ft | 551 kts | 135° |
| 2026-05-05 22:33 | 29.51084 | 75.93985 | 37108 ft | 550 kts | 135° |
| 2026-05-05 22:33 | 29.48534 | 75.97262 | 36299 ft | 550 kts | 135° |
| 2026-05-05 22:34 | 29.45987 | 76.00537 | 35394 ft | 550 kts | 135° |
| 2026-05-05 22:34 | 29.43435 | 76.03816 | 34665 ft | 548 kts | 134° |
| 2026-05-05 22:34 | 29.40930 | 76.07037 | 34198 ft | 538 kts | 134° |
| 2026-05-05 22:34 | 29.38438 | 76.10235 | 33512 ft | 535 kts | 134° |
| 2026-05-05 22:35 | 29.35977 | 76.13391 | 33004 ft | 527 kts | 134° |
| 2026-05-05 22:35 | 29.33552 | 76.16500 | 32467 ft | 520 kts | 134° |
| 2026-05-05 22:35 | 29.31146 | 76.19579 | 31931 ft | 514 kts | 134° |
| 2026-05-05 22:35 | 29.28781 | 76.22603 | 31428 ft | 507 kts | 134° |
| 2026-05-05 22:36 | 29.26436 | 76.25599 | 30897 ft | 501 kts | 134° |
| 2026-05-05 22:36 | 29.24126 | 76.28549 | 30358 ft | 495 kts | 134° |
| 2026-05-05 22:36 | 29.21843 | 76.31462 | 29842 ft | 488 kts | 134° |
| 2026-05-05 22:36 | 29.19587 | 76.34338 | 29254 ft | 483 kts | 134° |
| 2026-05-05 22:37 | 29.17349 | 76.37188 | 28669 ft | 479 kts | 134° |
| 2026-05-05 22:37 | 29.15136 | 76.40005 | 28119 ft | 473 kts | 134° |
| 2026-05-05 22:37 | 29.12953 | 76.42785 | 27544 ft | 468 kts | 133° |
| 2026-05-05 22:37 | 29.10784 | 76.45542 | 26979 ft | 463 kts | 133° |
| 2026-05-05 22:38 | 29.08642 | 76.48264 | 26402 ft | 458 kts | 133° |
| 2026-05-05 22:38 | 29.06521 | 76.50958 | 25814 ft | 454 kts | 133° |
| 2026-05-05 22:38 | 29.04417 | 76.53628 | 25241 ft | 449 kts | 133° |
| 2026-05-05 22:38 | 29.02343 | 76.56259 | 24683 ft | 444 kts | 133° |
| 2026-05-05 22:39 | 29.00283 | 76.58869 | 24128 ft | 439 kts | 133° |
| 2026-05-05 22:39 | 28.98245 | 76.61450 | 23492 ft | 436 kts | 133° |
| 2026-05-05 22:39 | 28.96222 | 76.64012 | 22905 ft | 432 kts | 133° |
| 2026-05-05 22:39 | 28.94218 | 76.66547 | 22292 ft | 429 kts | 133° |
| 2026-05-05 22:40 | 28.92226 | 76.69066 | 21662 ft | 426 kts | 133° |
| 2026-05-05 22:40 | 28.90250 | 76.71564 | 21092 ft | 422 kts | 133° |
| 2026-05-05 22:40 | 28.88317 | 76.74008 | 20915 ft | 408 kts | 133° |
| 2026-05-05 22:40 | 28.86447 | 76.76368 | 20774 ft | 394 kts | 133° |
| 2026-05-05 22:41 | 28.84639 | 76.78651 | 20640 ft | 381 kts | 133° |
| 2026-05-05 22:41 | 28.83009 | 76.80960 | 20500 ft | 370 kts | 120° |
| 2026-05-05 22:41 | 28.82100 | 76.83620 | 20159 ft | 364 kts | 99° |
| 2026-05-05 22:41 | 28.81991 | 76.86475 | 19730 ft | 359 kts | 86° |
| 2026-05-05 22:42 | 28.82066 | 76.89311 | 19328 ft | 357 kts | 86° |
| 2026-05-05 22:42 | 28.82119 | 76.92134 | 18934 ft | 355 kts | 86° |
| 2026-05-05 22:42 | 28.82160 | 76.94980 | 18541 ft | 353 kts | 86° |
| 2026-05-05 22:42 | 28.82195 | 76.97769 | 18128 ft | 352 kts | 86° |
| 2026-05-05 22:43 | 28.82225 | 77.00510 | 17757 ft | 349 kts | 86° |
| 2026-05-05 22:43 | 28.82254 | 77.03272 | 17389 ft | 346 kts | 86° |
| 2026-05-05 22:43 | 28.82282 | 77.06003 | 17069 ft | 342 kts | 86° |
| 2026-05-05 22:43 | 28.82310 | 77.08671 | 16965 ft | 331 kts | 86° |
| 2026-05-05 22:44 | 28.82334 | 77.11251 | 16863 ft | 320 kts | 86° |
| 2026-05-05 22:44 | 28.82357 | 77.13750 | 16783 ft | 310 kts | 86° |
| 2026-05-05 22:44 | 28.82381 | 77.16167 | 16696 ft | 300 kts | 86° |
| 2026-05-05 22:44 | 28.82405 | 77.18511 | 16581 ft | 291 kts | 86° |
| 2026-05-05 22:45 | 28.82429 | 77.20811 | 16321 ft | 289 kts | 86° |
| 2026-05-05 22:45 | 28.82453 | 77.23098 | 16046 ft | 287 kts | 86° |
| 2026-05-05 22:45 | 28.82476 | 77.25372 | 15760 ft | 286 kts | 86° |
| 2026-05-05 22:45 | 28.82485 | 77.27633 | 15474 ft | 285 kts | 91° |
| 2026-05-05 22:46 | 28.82017 | 77.29827 | 15138 ft | 287 kts | 115° |
| 2026-05-05 22:46 | 28.80905 | 77.31704 | 14855 ft | 286 kts | 127° |
| 2026-05-05 22:46 | 28.79707 | 77.33505 | 14563 ft | 285 kts | 126° |
| 2026-05-05 22:46 | 28.78535 | 77.35314 | 14292 ft | 282 kts | 126° |
| 2026-05-05 22:47 | 28.77375 | 77.37119 | 13986 ft | 281 kts | 126° |
| 2026-05-05 22:47 | 28.76226 | 77.38907 | 13708 ft | 279 kts | 126° |
| 2026-05-05 22:47 | 28.75079 | 77.40689 | 13412 ft | 278 kts | 126° |
| 2026-05-05 22:47 | 28.73927 | 77.42455 | 13110 ft | 276 kts | 130° |
| 2026-05-05 22:48 | 28.72434 | 77.43788 | 12767 ft | 274 kts | 157° |
| 2026-05-05 22:48 | 28.70602 | 77.44229 | 12459 ft | 269 kts | 185° |
| 2026-05-05 22:48 | 28.68831 | 77.43703 | 12152 ft | 261 kts | 211° |
| 2026-05-05 22:48 | 28.67359 | 77.42586 | 12066 ft | 249 kts | 220° |
| 2026-05-05 22:49 | 28.66000 | 77.41420 | 11945 ft | 242 kts | 219° |
| 2026-05-05 22:49 | 28.64623 | 77.40326 | 11692 ft | 241 kts | 217° |
| 2026-05-05 22:49 | 28.63206 | 77.39307 | 11434 ft | 241 kts | 214° |
| 2026-05-05 22:49 | 28.61768 | 77.38338 | 11175 ft | 240 kts | 213° |
| 2026-05-05 22:50 | 28.60323 | 77.37396 | 10933 ft | 238 kts | 213° |
| 2026-05-05 22:50 | 28.58840 | 77.36564 | 10657 ft | 241 kts | 197° |
| 2026-05-05 22:50 | 28.57171 | 77.36549 | 10385 ft | 244 kts | 165° |
| 2026-05-05 22:50 | 28.55712 | 77.37510 | 10095 ft | 245 kts | 133° |
| 2026-05-05 22:51 | 28.54876 | 77.39169 | 9783 ft | 244 kts | 103° |
| 2026-05-05 22:51 | 28.54499 | 77.41043 | 9513 ft | 243 kts | 101° |
| 2026-05-05 22:51 | 28.54136 | 77.42918 | 9271 ft | 242 kts | 101° |
| 2026-05-05 22:51 | 28.53771 | 77.44810 | 8874 ft | 248 kts | 101° |
| 2026-05-05 22:52 | 28.53399 | 77.46757 | 8455 ft | 255 kts | 101° |
| 2026-05-05 22:52 | 28.53026 | 77.48723 | 8032 ft | 261 kts | 101° |
| 2026-05-05 22:52 | 28.52640 | 77.50760 | 7616 ft | 266 kts | 101° |
| 2026-05-05 22:52 | 28.52249 | 77.52825 | 7239 ft | 268 kts | 101° |
| 2026-05-05 22:53 | 28.51722 | 77.54853 | 6873 ft | 269 kts | 118° |
| 2026-05-05 22:53 | 28.50526 | 77.56454 | 6544 ft | 267 kts | 146° |
| 2026-05-05 22:53 | 28.48840 | 77.57252 | 6253 ft | 262 kts | 174° |
| 2026-05-05 22:53 | 28.47067 | 77.57079 | 5945 ft | 254 kts | 202° |
| 2026-05-05 22:54 | 28.45624 | 77.56008 | 5651 ft | 246 kts | 231° |
| 2026-05-05 22:54 | 28.44877 | 77.54340 | 5532 ft | 232 kts | 263° |
| 2026-05-05 22:54 | 28.45041 | 77.52594 | 5461 ft | 218 kts | 287° |
| 2026-05-05 22:54 | 28.45482 | 77.50980 | 5383 ft | 210 kts | 288° |
| 2026-05-05 22:55 | 28.45871 | 77.49405 | 5220 ft | 206 kts | 286° |
| 2026-05-05 22:55 | 28.46224 | 77.47824 | 4994 ft | 206 kts | 285° |
| 2026-05-05 22:55 | 28.46562 | 77.46238 | 4749 ft | 207 kts | 284° |
| 2026-05-05 22:55 | 28.46901 | 77.44654 | 4521 ft | 206 kts | 285° |
| 2026-05-05 22:56 | 28.47240 | 77.43073 | 4295 ft | 206 kts | 285° |
| 2026-05-05 22:56 | 28.47580 | 77.41490 | 4052 ft | 207 kts | 285° |
| 2026-05-05 22:56 | 28.47920 | 77.39903 | 3823 ft | 206 kts | 285° |
| 2026-05-05 22:56 | 28.48259 | 77.38319 | 3600 ft | 207 kts | 285° |
| 2026-05-05 22:57 | 28.48602 | 77.36730 | 3386 ft | 207 kts | 284° |
| 2026-05-05 22:57 | 28.48942 | 77.35142 | 3158 ft | 207 kts | 284° |
| 2026-05-05 22:57 | 28.49281 | 77.33554 | 2924 ft | 207 kts | 285° |
| 2026-05-05 22:57 | 28.49621 | 77.31962 | 2856 ft | 208 kts | 285° |
| 2026-05-05 22:58 | 28.49965 | 77.30361 | 2858 ft | 209 kts | 285° |
| 2026-05-05 22:58 | 28.50307 | 77.28765 | 2856 ft | 207 kts | 285° |
| 2026-05-05 22:58 | 28.50647 | 77.27173 | 2855 ft | 208 kts | 284° |
| 2026-05-05 22:58 | 28.50989 | 77.25578 | 2863 ft | 208 kts | 285° |
| 2026-05-05 22:59 | 28.51320 | 77.24023 | 2853 ft | 193 kts | 285° |
| 2026-05-05 22:59 | 28.51622 | 77.22614 | 2856 ft | 178 kts | 285° |
| 2026-05-05 22:59 | 28.51909 | 77.21280 | 2740 ft | 168 kts | 285° |
| 2026-05-05 22:59 | 28.52174 | 77.20034 | 2498 ft | 158 kts | 284° |
| 2026-05-05 23:00 | 28.52684 | 77.17655 | 2089 ft | 150 kts | 284° |
| 2026-05-05 23:00 | 28.52923 | 77.16528 | 1891 ft | 143 kts | 283° |
| 2026-05-05 23:00 | 28.53154 | 77.15442 | 1702 ft | 141 kts | 284° |
| 2026-05-05 23:01 | 28.53381 | 77.14377 | 1521 ft | 140 kts | 284° |
| 2026-05-05 23:01 | 28.53618 | 77.13302 | 1335 ft | 139 kts | 284° |
| 2026-05-05 23:01 | 28.53768 | 77.12578 | 1210 ft | 139 kts | 283° |
| 2026-05-05 23:01 | 28.54073 | 77.11160 | 947 ft | 140 kts | 283° |
| 2026-05-05 23:02 | 28.54311 | 77.10099 | 758 ft | 136 kts | 283° |
| 2026-05-05 23:02 | 28.54497 | 77.09235 | 754 ft | 82 kts | 283° |
| 2026-05-05 23:02 | 28.54574 | 77.08870 | 757 ft | 25 kts | 283° |
| 2026-05-05 23:02 | 28.54615 | 77.08674 | 758 ft | 27 kts | 283° |
| 2026-05-05 23:03 | 28.54652 | 77.08541 | 756 ft | 26 kts | 296° |
| 2026-05-05 23:03 | 28.54760 | 77.08375 | 756 ft | 23 kts | 313° |
| 2026-05-05 23:03 | 28.54849 | 77.08272 | 756 ft | 13 kts | 315° |
| 2026-05-05 23:03 | 28.54902 | 77.08212 | 754 ft | 10 kts | 315° |
| 2026-05-05 23:04 | 28.54954 | 77.08139 | 754 ft | 13 kts | 292° |
| 2026-05-05 23:04 | 28.54981 | 77.08022 | 756 ft | 16 kts | 283° |
| 2026-05-05 23:04 | 28.54999 | 77.07943 | 755 ft | 8 kts | 284° |
| 2026-05-05 23:04 | 28.55018 | 77.07863 | 756 ft | 13 kts | 285° |
| 2026-05-05 23:05 | 28.55042 | 77.07759 | 752 ft | 9 kts | 286° |
| 2026-05-05 23:05 | 28.55083 | 77.07704 | 753 ft | 10 kts | 351° |
| 2026-05-05 23:05 | 28.55163 | 77.07729 | 752 ft | 14 kts | 17° |
| 2026-05-05 23:05 | 28.55273 | 77.07761 | 751 ft | 18 kts | 14° |
| 2026-05-05 23:06 | 28.55379 | 77.07791 | 756 ft | 17 kts | 14° |
| 2026-05-05 23:06 | 28.55497 | 77.07825 | 752 ft | 15 kts | 14° |
| 2026-05-05 23:06 | 28.55583 | 77.07849 | 751 ft | 7 kts | 16° |
| 2026-05-05 23:06 | 28.55604 | 77.07875 | 754 ft | 4 kts | 97° |
| 2026-05-05 23:07 | 28.55591 | 77.07896 | 755 ft | 5 kts | 155° |
| 2026-05-05 23:07 | 28.55554 | 77.07917 | 753 ft | 7 kts | 150° |
| 2026-05-05 23:07 | 28.55533 | 77.07931 | 756 ft | 3 kts | 151° |
| 2026-05-05 23:07 | 28.55522 | 77.07938 | 751 ft | 0 kts | 149° |
| 2026-05-05 23:08 | 28.55517 | 77.07941 | 754 ft | 1 kts | 149° |
| 2026-05-05 23:08 | 28.55516 | 77.07943 | 753 ft | 0 kts | 149° |